createdAt,value
2016-12-10T00:00:52.975Z,10.3
2016-12-10T00:01:58.977Z,10.3
2016-12-10T00:03:04.985Z,10.4
2016-12-10T00:04:10.987Z,10.4
2016-12-10T00:05:16.985Z,10.4
2016-12-10T00:06:22.976Z,10.4
2016-12-10T00:07:28.982Z,10.4
2016-12-10T00:08:34.986Z,10.4
2016-12-10T00:09:40.987Z,10.3
2016-12-10T00:10:46.992Z,10.4
2016-12-10T00:11:52.997Z,10.4
2016-12-10T00:12:59.000Z,10.4
2016-12-10T00:14:05.002Z,10.4
2016-12-10T00:15:10.997Z,10.4
2016-12-10T00:16:16.997Z,10.4
2016-12-10T00:17:23.019Z,10.4
2016-12-10T00:18:28.998Z,10.4
2016-12-10T00:19:35.002Z,10.4
2016-12-10T00:20:41.000Z,10.4
2016-12-10T00:21:46.996Z,10.4
2016-12-10T00:22:53.001Z,10.4
2016-12-10T00:23:59.001Z,10.4
2016-12-10T00:25:05.006Z,10.4
2016-12-10T00:26:11.006Z,10.4
2016-12-10T00:27:17.003Z,10.4
2016-12-10T00:28:23.003Z,10.5
2016-12-10T00:29:29.011Z,10.5
2016-12-10T00:30:35.016Z,10.4
2016-12-10T00:31:41.018Z,10.5
2016-12-10T00:32:47.018Z,10.5
2016-12-10T00:33:53.019Z,10.5
2016-12-10T00:34:59.022Z,10.5
2016-12-10T00:36:05.018Z,10.5
2016-12-10T00:37:11.019Z,10.5
2016-12-10T00:38:17.025Z,10.5
2016-12-10T00:39:23.035Z,10.5
2016-12-10T00:40:29.036Z,10.5
2016-12-10T00:41:35.040Z,10.5
2016-12-10T00:42:41.032Z,10.5
2016-12-10T00:43:47.036Z,10.6
2016-12-10T00:44:53.039Z,10.5
2016-12-10T00:45:59.044Z,10.6
2016-12-10T00:47:05.037Z,10.6
2016-12-10T00:48:11.044Z,10.6
2016-12-10T00:49:17.047Z,10.5
2016-12-10T00:50:23.052Z,10.5
2016-12-10T00:51:29.065Z,10.6
2016-12-10T00:52:35.066Z,10.6
2016-12-10T00:53:41.070Z,10.6
2016-12-10T00:54:47.068Z,10.6
2016-12-10T00:55:53.075Z,10.6
2016-12-10T00:56:59.074Z,10.6
2016-12-10T00:58:05.082Z,10.6
2016-12-10T00:59:11.087Z,10.6
2016-12-10T01:00:17.097Z,10.6
2016-12-10T01:01:23.090Z,10.6
2016-12-10T01:02:29.097Z,10.6
2016-12-10T01:03:35.094Z,10.6
2016-12-10T01:04:41.091Z,10.6
2016-12-10T01:05:47.090Z,10.6
2016-12-10T01:06:53.100Z,10.6
2016-12-10T01:07:59.107Z,10.6
2016-12-10T01:09:05.111Z,10.6
2016-12-10T01:10:11.121Z,10.7
2016-12-10T01:11:17.121Z,10.7
2016-12-10T01:12:23.118Z,10.7
2016-12-10T01:13:29.130Z,10.7
2016-12-10T01:14:35.132Z,10.7
2016-12-10T01:15:41.133Z,10.7
2016-12-10T01:16:47.125Z,10.7
2016-12-10T01:17:53.129Z,10.7
2016-12-10T01:18:59.136Z,10.7
2016-12-10T01:20:05.132Z,10.7
2016-12-10T01:21:11.141Z,10.7
2016-12-10T01:22:17.144Z,10.7
2016-12-10T01:23:23.150Z,10.7
2016-12-10T01:24:29.148Z,10.7
2016-12-10T01:25:35.150Z,10.7
2016-12-10T01:26:41.145Z,10.8
2016-12-10T01:27:47.151Z,10.8
2016-12-10T01:28:53.163Z,10.8
2016-12-10T01:29:59.163Z,10.8
2016-12-10T01:31:05.170Z,10.8
2016-12-10T01:32:11.178Z,10.8
2016-12-10T01:33:17.174Z,10.8
2016-12-10T01:34:23.174Z,10.8
2016-12-10T01:35:29.178Z,10.8
2016-12-10T01:36:35.179Z,10.8
2016-12-10T01:37:41.180Z,10.8
2016-12-10T01:38:47.182Z,10.8
2016-12-10T01:39:53.186Z,10.9
2016-12-10T01:40:59.189Z,10.9
2016-12-10T01:42:05.199Z,10.9
2016-12-10T01:43:11.199Z,10.9
2016-12-10T01:44:16.450Z,10.9
2016-12-10T01:45:22.448Z,10.9
2016-12-10T01:46:28.456Z,10.9
2016-12-10T01:47:34.461Z,10.9
2016-12-10T01:48:40.465Z,10.9
2016-12-10T01:49:46.466Z,10.9
2016-12-10T01:50:52.477Z,10.9
2016-12-10T01:51:58.474Z,10.9
2016-12-10T01:53:04.482Z,11
2016-12-10T01:54:10.474Z,11
2016-12-10T01:55:16.476Z,11
2016-12-10T01:56:22.482Z,11
2016-12-10T01:57:28.492Z,11
2016-12-10T01:58:34.496Z,11
2016-12-10T01:59:40.495Z,11
2016-12-10T02:00:46.496Z,11
2016-12-10T02:01:52.507Z,11
2016-12-10T02:02:58.503Z,11
2016-12-10T02:04:04.506Z,11
2016-12-10T02:05:10.503Z,11
2016-12-10T02:06:16.510Z,11
2016-12-10T02:07:22.512Z,11
2016-12-10T02:08:28.513Z,11
2016-12-10T02:09:34.520Z,11
2016-12-10T02:10:40.521Z,11
2016-12-10T02:11:46.530Z,11
2016-12-10T02:12:52.525Z,11
2016-12-10T02:13:58.528Z,11
2016-12-10T02:15:04.527Z,11
2016-12-10T02:16:10.527Z,11
2016-12-10T02:17:16.532Z,11
2016-12-10T02:18:22.532Z,11
2016-12-10T02:19:28.541Z,11
2016-12-10T02:20:34.542Z,11
2016-12-10T02:21:40.542Z,11
2016-12-10T02:22:46.540Z,11
2016-12-10T02:23:52.554Z,11
2016-12-10T02:24:58.541Z,11.1
2016-12-10T02:26:04.548Z,11.1
2016-12-10T02:27:10.552Z,11.1
2016-12-10T02:28:16.562Z,11.1
2016-12-10T02:29:22.554Z,11.1
2016-12-10T02:30:28.560Z,11.1
2016-12-10T02:31:34.565Z,11.1
2016-12-10T02:32:40.572Z,11.1
2016-12-10T02:33:46.564Z,11.1
2016-12-10T02:34:52.565Z,11.1
2016-12-10T02:35:58.575Z,11.1
2016-12-10T02:37:04.578Z,11.1
2016-12-10T02:38:10.578Z,11.1
2016-12-10T02:39:16.575Z,11.1
2016-12-10T02:40:22.578Z,11.1
2016-12-10T02:41:28.581Z,11.1
2016-12-10T02:42:34.581Z,11.1
2016-12-10T02:43:40.585Z,11.1
2016-12-10T02:44:46.591Z,11.1
2016-12-10T02:45:52.594Z,11.1
2016-12-10T02:46:58.594Z,11.1
2016-12-10T02:48:04.586Z,11.1
2016-12-10T02:49:10.634Z,11.1
2016-12-10T02:50:16.640Z,11.1
2016-12-10T02:51:22.636Z,11.1
2016-12-10T02:52:28.632Z,11
2016-12-10T02:53:34.628Z,11
2016-12-10T02:54:40.633Z,11.1
2016-12-10T02:55:46.637Z,11
2016-12-10T02:56:52.636Z,11.1
2016-12-10T02:57:58.640Z,11
2016-12-10T02:59:04.662Z,11
2016-12-10T03:00:10.637Z,11
2016-12-10T03:01:16.645Z,11
2016-12-10T03:02:22.647Z,11
2016-12-10T03:03:28.647Z,11
2016-12-10T03:04:34.644Z,11
2016-12-10T03:05:40.657Z,11.1
2016-12-10T03:06:46.645Z,11.1
2016-12-10T03:07:52.647Z,11.1
2016-12-10T03:08:58.644Z,11
2016-12-10T03:10:04.656Z,11
2016-12-10T03:11:10.660Z,11
2016-12-10T03:12:16.661Z,11
2016-12-10T03:13:22.667Z,11
2016-12-10T03:14:28.662Z,11.1
2016-12-10T03:15:34.663Z,11
2016-12-10T03:16:40.665Z,11
2016-12-10T03:17:46.662Z,11
2016-12-10T03:18:52.659Z,11
2016-12-10T03:19:58.660Z,11
2016-12-10T03:21:04.661Z,11
2016-12-10T03:22:10.664Z,11
2016-12-10T03:23:16.667Z,11
2016-12-10T03:24:22.670Z,11
2016-12-10T03:25:28.671Z,11
2016-12-10T03:26:34.666Z,11
2016-12-10T03:27:40.680Z,11
2016-12-10T03:28:46.679Z,11
2016-12-10T03:29:52.670Z,11
2016-12-10T03:30:58.676Z,11
2016-12-10T03:32:04.679Z,11
2016-12-10T03:33:10.683Z,11
2016-12-10T03:34:16.673Z,10.9
2016-12-10T03:35:22.684Z,10.9
2016-12-10T03:36:28.679Z,11
2016-12-10T03:37:34.681Z,11
2016-12-10T03:38:40.674Z,11
2016-12-10T03:39:46.676Z,11
2016-12-10T03:40:52.677Z,10.9
2016-12-10T03:41:58.680Z,10.9
2016-12-10T03:43:04.683Z,10.9
2016-12-10T03:44:10.694Z,10.9
2016-12-10T03:45:16.691Z,10.9
2016-12-10T03:46:22.695Z,10.9
2016-12-10T03:47:28.697Z,10.9
2016-12-10T03:48:34.699Z,10.9
2016-12-10T03:49:40.701Z,10.9
2016-12-10T03:50:46.706Z,10.9
2016-12-10T03:51:52.703Z,10.9
2016-12-10T03:52:58.709Z,10.9
2016-12-10T03:54:04.707Z,10.9
2016-12-10T03:55:10.704Z,10.9
2016-12-10T03:56:16.710Z,10.9
2016-12-10T03:57:22.711Z,10.9
2016-12-10T03:58:28.710Z,10.8
2016-12-10T03:59:34.709Z,10.9
2016-12-10T04:00:40.714Z,10.8
2016-12-10T04:01:46.708Z,10.8
2016-12-10T04:02:52.717Z,10.8
2016-12-10T04:03:58.710Z,10.8
2016-12-10T04:05:04.704Z,10.8
2016-12-10T04:06:10.708Z,10.8
2016-12-10T04:07:16.705Z,10.8
2016-12-10T04:08:22.706Z,10.8
2016-12-10T04:09:28.712Z,10.8
2016-12-10T04:10:34.720Z,10.8
2016-12-10T04:11:40.717Z,10.7
2016-12-10T04:12:46.722Z,10.7
2016-12-10T04:13:52.723Z,10.7
2016-12-10T04:14:58.723Z,10.7
2016-12-10T04:16:04.729Z,10.7
2016-12-10T04:17:10.729Z,10.7
2016-12-10T04:18:16.726Z,10.7
2016-12-10T04:19:22.724Z,10.7
2016-12-10T04:20:27.631Z,10.7
2016-12-10T04:21:33.633Z,10.6
2016-12-10T04:22:39.634Z,10.6
2016-12-10T04:23:45.632Z,10.6
2016-12-10T04:24:51.629Z,10.6
2016-12-10T04:25:57.629Z,10.6
2016-12-10T04:27:03.634Z,10.6
2016-12-10T04:28:09.632Z,10.6
2016-12-10T04:29:15.633Z,10.6
2016-12-10T04:30:21.630Z,10.6
2016-12-10T04:31:27.633Z,10.5
2016-12-10T04:32:33.641Z,10.5
2016-12-10T04:33:39.642Z,10.5
2016-12-10T04:34:45.634Z,10.5
2016-12-10T04:35:51.633Z,10.5
2016-12-10T04:36:57.633Z,10.5
2016-12-10T04:38:03.646Z,10.5
2016-12-10T04:39:09.641Z,10.5
2016-12-10T04:40:15.646Z,10.5
2016-12-10T04:41:21.653Z,10.5
2016-12-10T04:42:27.662Z,10.5
2016-12-10T04:43:33.654Z,10.5
2016-12-10T04:44:39.659Z,10.5
2016-12-10T04:45:45.662Z,10.4
2016-12-10T04:46:51.666Z,10.4
2016-12-10T04:47:57.668Z,10.5
2016-12-10T04:49:03.669Z,10.5
2016-12-10T04:50:09.674Z,10.5
2016-12-10T04:51:15.679Z,10.5
2016-12-10T04:52:21.684Z,10.5
2016-12-10T04:53:27.680Z,10.5
2016-12-10T04:54:33.678Z,10.5
2016-12-10T04:55:39.684Z,10.5
2016-12-10T04:56:45.689Z,10.5
2016-12-10T04:57:51.679Z,10.5
2016-12-10T04:58:57.690Z,10.5
2016-12-10T05:00:03.693Z,10.5
2016-12-10T05:01:09.700Z,10.5
2016-12-10T05:02:15.694Z,10.5
2016-12-10T05:03:21.702Z,10.5
2016-12-10T05:04:27.699Z,10.5
2016-12-10T05:05:33.698Z,10.5
2016-12-10T05:06:39.700Z,10.5
2016-12-10T05:07:45.714Z,10.5
2016-12-10T05:08:51.706Z,10.5
2016-12-10T05:09:57.708Z,10.5
2016-12-10T05:11:03.712Z,10.5
2016-12-10T05:12:09.720Z,10.4
2016-12-10T05:13:15.722Z,10.4
2016-12-10T05:14:21.726Z,10.4
2016-12-10T05:15:27.727Z,10.4
2016-12-10T05:16:33.727Z,10.4
2016-12-10T05:17:39.730Z,10.4
2016-12-10T05:18:45.732Z,10.4
2016-12-10T05:19:51.739Z,10.4
2016-12-10T05:20:57.744Z,10.4
2016-12-10T05:22:03.740Z,10.4
2016-12-10T05:23:09.739Z,10.4
2016-12-10T05:24:15.737Z,10.4
2016-12-10T05:25:21.740Z,10.4
2016-12-10T05:26:27.741Z,10.4
2016-12-10T05:27:33.741Z,10.4
2016-12-10T05:28:39.750Z,10.4
2016-12-10T05:29:45.756Z,10.4
2016-12-10T05:30:51.753Z,10.4
2016-12-10T05:31:57.750Z,10.4
2016-12-10T05:33:03.751Z,10.4
2016-12-10T05:34:09.750Z,10.4
2016-12-10T05:35:15.749Z,10.4
2016-12-10T05:36:21.749Z,10.4
2016-12-10T05:37:27.750Z,10.4
2016-12-10T05:38:33.753Z,10.4
2016-12-10T05:39:39.757Z,10.4
2016-12-10T05:40:45.757Z,10.4
2016-12-10T05:41:51.749Z,10.4
2016-12-10T05:42:57.758Z,10.4
2016-12-10T05:44:03.760Z,10.4
2016-12-10T05:45:09.764Z,10.4
2016-12-10T05:46:15.778Z,10.4
2016-12-10T05:47:21.776Z,10.4
2016-12-10T05:48:27.786Z,10.4
2016-12-10T05:49:33.781Z,10.4
2016-12-10T05:50:39.787Z,10.4
2016-12-10T05:51:45.790Z,10.4
2016-12-10T05:52:51.794Z,10.4
2016-12-10T05:53:57.796Z,10.4
2016-12-10T05:55:03.800Z,10.4
2016-12-10T05:56:09.802Z,10.4
2016-12-10T05:57:15.801Z,10.4
2016-12-10T05:58:21.795Z,10.5
2016-12-10T05:59:27.794Z,10.5
2016-12-10T06:00:33.796Z,10.5
2016-12-10T06:01:39.795Z,10.5
2016-12-10T06:02:45.797Z,10.5
2016-12-10T06:03:51.802Z,10.5
2016-12-10T06:04:57.804Z,10.6
2016-12-10T06:06:03.801Z,10.6
2016-12-10T06:07:09.797Z,10.6
2016-12-10T06:08:15.796Z,10.6
2016-12-10T06:09:21.793Z,10.6
2016-12-10T06:10:27.797Z,10.7
2016-12-10T06:11:33.803Z,10.7
2016-12-10T06:12:39.805Z,10.7
2016-12-10T06:13:45.806Z,10.7
2016-12-10T06:14:51.800Z,10.7
2016-12-10T06:15:57.808Z,10.7
2016-12-10T06:17:03.806Z,10.7
2016-12-10T06:18:09.807Z,10.6
2016-12-10T06:19:15.802Z,10.6
2016-12-10T06:20:21.813Z,10.7
2016-12-10T06:21:27.820Z,10.6
2016-12-10T06:22:33.813Z,10.7
2016-12-10T06:23:39.816Z,10.7
2016-12-10T06:24:45.819Z,10.7
2016-12-10T06:25:51.825Z,10.7
2016-12-10T06:26:57.827Z,10.6
2016-12-10T06:28:03.822Z,10.6
2016-12-10T06:29:09.832Z,10.6
2016-12-10T06:30:15.833Z,10.5
2016-12-10T06:31:21.843Z,10.5
2016-12-10T06:32:27.847Z,10.5
2016-12-10T06:33:33.853Z,10.6
2016-12-10T06:34:39.851Z,10.6
2016-12-10T06:35:45.855Z,10.6
2016-12-10T06:36:51.864Z,10.5
2016-12-10T06:37:57.856Z,10.5
2016-12-10T06:39:03.863Z,10.6
2016-12-10T06:40:09.870Z,10.5
2016-12-10T06:41:15.872Z,10.5
2016-12-10T06:42:21.885Z,10.6
2016-12-10T06:43:27.880Z,10.6
2016-12-10T06:44:33.880Z,10.6
2016-12-10T06:45:39.874Z,10.5
2016-12-10T06:46:45.875Z,10.5
2016-12-10T06:47:51.881Z,10.5
2016-12-10T06:48:57.880Z,10.5
2016-12-10T06:50:03.886Z,10.5
2016-12-10T06:51:09.889Z,10.5
2016-12-10T06:52:15.896Z,10.5
2016-12-10T06:53:21.893Z,10.5
2016-12-10T06:54:27.895Z,10.5
2016-12-10T06:55:33.892Z,10.5
2016-12-10T06:56:39.949Z,10.6
2016-12-10T06:57:45.180Z,10.6
2016-12-10T06:58:51.181Z,10.6
2016-12-10T06:59:57.222Z,10.6
2016-12-10T07:01:03.234Z,10.6
2016-12-10T07:02:09.229Z,10.6
2016-12-10T07:03:15.270Z,10.6
2016-12-10T07:04:21.274Z,10.6
2016-12-10T07:05:27.280Z,10.6
2016-12-10T07:06:33.278Z,10.6
2016-12-10T07:07:39.282Z,10.6
2016-12-10T07:08:45.449Z,10.5
2016-12-10T07:09:51.467Z,10.6
2016-12-10T07:10:57.513Z,10.6
2016-12-10T07:12:03.526Z,10.6
2016-12-10T07:13:09.551Z,10.6
2016-12-10T07:14:15.543Z,10.6
2016-12-10T07:15:21.547Z,10.5
2016-12-10T07:16:27.567Z,10.6
2016-12-10T07:17:33.572Z,10.6
2016-12-10T07:18:39.671Z,10.6
2016-12-10T07:19:45.671Z,10.6
2016-12-10T07:20:51.674Z,10.6
2016-12-10T07:21:57.670Z,10.5
2016-12-10T07:23:03.669Z,10.5
2016-12-10T07:24:09.677Z,10.5
2016-12-10T07:25:15.688Z,10.5
2016-12-10T07:26:21.691Z,10.5
2016-12-10T07:27:27.694Z,10.5
2016-12-10T07:28:33.712Z,10.5
2016-12-10T07:29:39.713Z,10.5
2016-12-10T07:30:45.724Z,10.5
2016-12-10T07:31:51.725Z,10.6
2016-12-10T07:32:57.737Z,10.5
2016-12-10T07:34:03.735Z,10.5
2016-12-10T07:35:09.751Z,10.6
2016-12-10T07:36:15.751Z,10.6
2016-12-10T07:37:21.753Z,10.6
2016-12-10T07:38:27.753Z,10.5
2016-12-10T07:39:33.758Z,10.6
2016-12-10T07:40:39.764Z,10.5
2016-12-10T07:41:45.762Z,10.5
2016-12-10T07:42:51.756Z,10.5
2016-12-10T07:43:57.767Z,10.5
2016-12-10T07:45:03.774Z,10.6
2016-12-10T07:46:09.781Z,10.6
2016-12-10T07:47:15.777Z,10.5
2016-12-10T07:48:21.771Z,10.5
2016-12-10T07:49:27.769Z,10.5
2016-12-10T07:50:33.770Z,10.5
2016-12-10T07:51:39.767Z,10.5
2016-12-10T07:52:45.779Z,10.5
2016-12-10T07:53:51.779Z,10.4
2016-12-10T07:54:57.780Z,10.4
2016-12-10T07:56:03.776Z,10.4
2016-12-10T07:57:09.791Z,10.4
2016-12-10T07:58:15.784Z,10.4
2016-12-10T07:59:21.792Z,10.4
2016-12-10T08:00:27.798Z,10.4
2016-12-10T08:01:33.803Z,10.4
2016-12-10T08:02:39.802Z,10.4
2016-12-10T08:03:45.800Z,10.4
2016-12-10T08:04:51.802Z,10.4
2016-12-10T08:05:57.798Z,10.3
2016-12-10T08:07:03.799Z,10.3
2016-12-10T08:08:09.806Z,10.3
2016-12-10T08:09:15.805Z,10.3
2016-12-10T08:10:21.805Z,10.3
2016-12-10T08:11:27.807Z,10.3
2016-12-10T08:12:33.806Z,10.2
2016-12-10T08:13:39.804Z,10.3
2016-12-10T08:14:45.802Z,10.3
2016-12-10T08:15:51.804Z,10.3
2016-12-10T08:16:57.798Z,10.2
2016-12-10T08:18:03.801Z,10.2
2016-12-10T08:19:09.806Z,10.2
2016-12-10T08:20:15.813Z,10.3
2016-12-10T08:21:21.808Z,10.3
2016-12-10T08:22:27.810Z,10.2
2016-12-10T08:23:33.816Z,10.2
2016-12-10T08:24:39.815Z,10.2
2016-12-10T08:25:45.811Z,10.2
2016-12-10T08:26:51.820Z,10.2
2016-12-10T08:27:57.831Z,10.1
2016-12-10T08:29:03.833Z,10.1
2016-12-10T08:30:09.832Z,10.1
2016-12-10T08:31:15.831Z,10.1
2016-12-10T08:32:21.833Z,10.2
2016-12-10T08:33:27.851Z,10.1
2016-12-10T08:34:33.843Z,10.1
2016-12-10T08:35:39.843Z,10.1
2016-12-10T08:36:45.842Z,10.1
2016-12-10T08:37:51.843Z,10.1
2016-12-10T08:38:57.853Z,10.1
2016-12-10T08:40:03.863Z,10.1
2016-12-10T08:41:09.866Z,10.1
2016-12-10T08:42:15.860Z,10.1
2016-12-10T08:43:21.860Z,10.1
2016-12-10T08:44:27.865Z,10.1
2016-12-10T08:45:33.869Z,10.1
2016-12-10T08:46:39.871Z,10
2016-12-10T08:47:45.872Z,10
2016-12-10T08:48:51.877Z,10
2016-12-10T08:49:57.883Z,10
2016-12-10T08:51:03.887Z,10
2016-12-10T08:52:09.880Z,10
2016-12-10T08:53:15.887Z,10
2016-12-10T08:54:21.890Z,10
2016-12-10T08:55:27.897Z,10
2016-12-10T08:56:33.892Z,10
2016-12-10T08:57:39.897Z,10
2016-12-10T08:58:45.910Z,10
2016-12-10T08:59:51.902Z,10
2016-12-10T09:00:57.892Z,10
2016-12-10T09:02:03.895Z,10
2016-12-10T09:03:09.898Z,10
2016-12-10T09:04:15.900Z,10
2016-12-10T09:05:21.905Z,10
2016-12-10T09:06:27.909Z,10
2016-12-10T09:07:33.916Z,10
2016-12-10T09:08:39.906Z,9.9
2016-12-10T09:09:45.913Z,9.9
2016-12-10T09:10:51.903Z,9.9
2016-12-10T09:11:57.906Z,9.9
2016-12-10T09:13:03.900Z,9.9
2016-12-10T09:14:09.900Z,9.9
2016-12-10T09:15:15.155Z,9.9
2016-12-10T09:16:21.157Z,10
2016-12-10T09:17:27.151Z,9.9
2016-12-10T09:18:33.145Z,9.9
2016-12-10T09:19:39.146Z,9.9
2016-12-10T09:20:45.152Z,9.9
2016-12-10T09:21:51.150Z,9.9
2016-12-10T09:22:57.148Z,9.9
2016-12-10T09:24:03.152Z,9.9
2016-12-10T09:25:09.158Z,9.9
2016-12-10T09:26:15.147Z,9.8
2016-12-10T09:27:21.143Z,9.8
2016-12-10T09:28:27.140Z,9.8
2016-12-10T09:29:33.136Z,9.8
2016-12-10T09:30:39.140Z,9.8
2016-12-10T09:31:45.133Z,9.8
2016-12-10T09:32:51.131Z,9.7
2016-12-10T09:33:57.126Z,9.8
2016-12-10T09:35:03.134Z,9.8
2016-12-10T09:36:09.146Z,9.8
2016-12-10T09:37:15.138Z,9.8
2016-12-10T09:38:21.134Z,9.9
2016-12-10T09:39:27.144Z,9.8
2016-12-10T09:40:33.141Z,9.7
2016-12-10T09:41:39.141Z,9.7
2016-12-10T09:42:45.138Z,9.7
2016-12-10T09:43:50.401Z,9.8
2016-12-10T09:44:56.404Z,9.7
2016-12-10T09:46:02.401Z,9.8
2016-12-10T09:47:08.393Z,9.8
2016-12-10T09:48:14.404Z,9.7
2016-12-10T09:49:20.407Z,9.7
2016-12-10T09:50:26.409Z,9.7
2016-12-10T09:51:32.401Z,9.7
2016-12-10T09:52:38.408Z,9.7
2016-12-10T09:53:44.405Z,9.6
2016-12-10T09:54:50.412Z,9.6
2016-12-10T09:55:56.406Z,9.6
2016-12-10T09:57:02.404Z,9.6
2016-12-10T09:58:08.399Z,9.7
2016-12-10T09:59:14.402Z,9.7
2016-12-10T10:00:20.395Z,9.7
2016-12-10T10:01:26.396Z,9.7
2016-12-10T10:02:32.406Z,9.7
2016-12-10T10:03:38.395Z,9.7
2016-12-10T10:04:44.392Z,9.6
2016-12-10T10:05:50.391Z,9.7
2016-12-10T10:06:56.394Z,9.7
2016-12-10T10:08:02.386Z,9.7
2016-12-10T10:09:08.392Z,9.7
2016-12-10T10:10:14.395Z,9.6
2016-12-10T10:11:20.393Z,9.6
2016-12-10T10:12:26.392Z,9.6
2016-12-10T10:13:32.392Z,9.6
2016-12-10T10:14:38.395Z,9.6
2016-12-10T10:15:44.402Z,9.5
2016-12-10T10:16:50.396Z,9.6
2016-12-10T10:17:56.403Z,9.5
2016-12-10T10:19:02.403Z,9.6
2016-12-10T10:20:08.401Z,9.6
2016-12-10T10:21:14.414Z,9.5
2016-12-10T10:22:20.414Z,9.5
2016-12-10T10:23:26.419Z,9.5
2016-12-10T10:24:32.419Z,9.5
2016-12-10T10:25:38.424Z,9.6
2016-12-10T10:26:44.433Z,9.6
2016-12-10T10:27:50.426Z,9.6
2016-12-10T10:28:56.420Z,9.6
2016-12-10T10:30:02.419Z,9.5
2016-12-10T10:31:08.423Z,9.6
2016-12-10T10:32:14.413Z,9.5
2016-12-10T10:33:20.422Z,9.5
2016-12-10T10:34:26.427Z,9.5
2016-12-10T10:35:32.428Z,9.5
2016-12-10T10:36:38.422Z,9.5
2016-12-10T10:37:44.430Z,9.5
2016-12-10T10:38:50.436Z,9.5
2016-12-10T10:39:56.430Z,9.5
2016-12-10T10:41:02.431Z,9.5
2016-12-10T10:42:08.436Z,9.5
2016-12-10T10:43:14.432Z,9.6
2016-12-10T10:44:20.435Z,9.5
2016-12-10T10:45:26.439Z,9.5
2016-12-10T10:46:32.434Z,9.5
2016-12-10T10:47:38.434Z,9.4
2016-12-10T10:48:44.433Z,9.4
2016-12-10T10:49:50.432Z,9.4
2016-12-10T10:50:56.430Z,9.4
2016-12-10T10:52:02.439Z,9.4
2016-12-10T10:53:08.438Z,9.4
2016-12-10T10:54:14.434Z,9.4
2016-12-10T10:55:20.434Z,9.4
2016-12-10T10:56:26.430Z,9.5
2016-12-10T10:57:32.425Z,9.5
2016-12-10T10:58:38.421Z,9.4
2016-12-10T10:59:44.441Z,9.4
2016-12-10T11:00:50.452Z,9.5
2016-12-10T11:01:56.442Z,9.4
2016-12-10T11:03:02.447Z,9.4
2016-12-10T11:04:08.526Z,9.5
2016-12-10T11:05:14.523Z,9.4
2016-12-10T11:06:20.519Z,9.5
2016-12-10T11:07:26.560Z,9.6
2016-12-10T11:08:32.564Z,9.5
2016-12-10T11:09:38.565Z,9.6
2016-12-10T11:10:44.565Z,9.5
2016-12-10T11:11:50.660Z,9.6
2016-12-10T11:12:56.663Z,9.7
2016-12-10T11:14:02.677Z,9.7
2016-12-10T11:15:08.665Z,9.6
2016-12-10T11:16:14.664Z,9.7
2016-12-10T11:17:20.665Z,9.7
2016-12-10T11:18:26.666Z,9.7
2016-12-10T11:19:32.671Z,9.6
2016-12-10T11:20:38.671Z,9.7
2016-12-10T11:21:44.672Z,9.7
2016-12-10T11:22:50.666Z,9.7
2016-12-10T11:23:56.669Z,9.6
2016-12-10T11:25:02.662Z,9.5
2016-12-10T11:26:08.664Z,9.5
2016-12-10T11:27:14.666Z,9.5
2016-12-10T11:28:20.670Z,9.5
2016-12-10T11:29:26.675Z,9.5
2016-12-10T11:30:32.672Z,9.4
2016-12-10T11:31:38.675Z,9.4
2016-12-10T11:32:44.676Z,9.4
2016-12-10T11:33:50.675Z,9.3
2016-12-10T11:34:56.679Z,9.3
2016-12-10T11:36:02.668Z,9.3
2016-12-10T11:37:08.676Z,9.3
2016-12-10T11:38:14.678Z,9.3
2016-12-10T11:39:20.680Z,9.2
2016-12-10T11:40:26.703Z,9.3
2016-12-10T11:41:32.711Z,9.2
2016-12-10T11:42:38.706Z,9.2
2016-12-10T11:43:44.701Z,9.3
2016-12-10T11:44:50.696Z,9.3
2016-12-10T11:45:56.710Z,9.3
2016-12-10T11:47:02.702Z,9.3
2016-12-10T11:48:08.701Z,9.3
2016-12-10T11:49:14.704Z,9.3
2016-12-10T11:50:20.793Z,9.2
2016-12-10T11:51:26.792Z,9.3
2016-12-10T11:52:32.789Z,9.3
2016-12-10T11:53:38.793Z,9.3
2016-12-10T11:54:44.786Z,9.3
2016-12-10T11:55:50.784Z,9.3
2016-12-10T11:56:56.785Z,9.2
2016-12-10T11:58:02.783Z,9.3
2016-12-10T11:59:08.784Z,9.2
2016-12-10T12:00:14.780Z,9.2
2016-12-10T12:01:20.782Z,9.2
2016-12-10T12:02:26.773Z,9.2
2016-12-10T12:03:32.846Z,9.3
2016-12-10T12:04:38.841Z,9.3
2016-12-10T12:05:44.842Z,9.3
2016-12-10T12:06:50.844Z,9.3
2016-12-10T12:07:56.842Z,9.3
2016-12-10T12:09:02.830Z,9.3
2016-12-10T12:10:08.839Z,9.3
2016-12-10T12:11:14.835Z,9.3
2016-12-10T12:12:20.828Z,9.2
2016-12-10T12:13:26.836Z,9.2
2016-12-10T12:14:32.836Z,9.3
2016-12-10T12:15:38.833Z,9.2
2016-12-10T12:16:44.831Z,9.2
2016-12-10T12:17:50.840Z,9.2
2016-12-10T12:18:56.835Z,9.2
2016-12-10T12:20:02.832Z,9.3
2016-12-10T12:21:08.829Z,9.2
2016-12-10T12:22:14.838Z,9.2
2016-12-10T12:23:20.194Z,9.2
2016-12-10T12:24:26.242Z,9.3
2016-12-10T12:25:32.241Z,9.3
2016-12-10T12:26:38.242Z,9.3
2016-12-10T12:27:44.242Z,9.3
2016-12-10T12:28:50.237Z,9.3
2016-12-10T12:29:56.241Z,9.2
2016-12-10T12:31:02.248Z,9.3
2016-12-10T12:32:08.252Z,9.2
2016-12-10T12:33:14.253Z,9.3
2016-12-10T12:34:20.250Z,9.2
2016-12-10T12:35:26.255Z,9.2
2016-12-10T12:36:32.261Z,9.2
2016-12-10T12:37:37.507Z,9.2
2016-12-10T12:38:43.509Z,9.2
2016-12-10T12:39:49.510Z,9.3
2016-12-10T12:40:55.507Z,9.2
2016-12-10T12:42:01.511Z,9.3
2016-12-10T12:43:07.516Z,9.3
2016-12-10T12:44:13.521Z,9.3
2016-12-10T12:45:19.526Z,9.3
2016-12-10T12:46:25.529Z,9.3
2016-12-10T12:47:31.529Z,9.3
2016-12-10T12:48:36.425Z,9.3
2016-12-10T12:49:42.633Z,9.3
2016-12-10T12:50:48.635Z,9.4
2016-12-10T12:51:54.639Z,9.3
2016-12-10T12:53:00.638Z,9.3
2016-12-10T12:54:06.810Z,9.3
2016-12-10T12:55:12.769Z,9.3
2016-12-10T12:56:18.962Z,9.4
2016-12-10T12:57:24.926Z,9.4
2016-12-10T12:58:30.994Z,9.4
2016-12-10T12:59:36.950Z,9.3
2016-12-10T13:00:43.046Z,9.3
2016-12-10T13:01:49.001Z,9.2
2016-12-10T13:02:55.042Z,9.3
2016-12-10T13:04:01.006Z,9.2
2016-12-10T13:05:07.107Z,9.2
2016-12-10T13:06:13.043Z,9.3
2016-12-10T13:07:19.118Z,9.3
2016-12-10T13:08:25.077Z,9.3
2016-12-10T13:09:31.126Z,9.3
2016-12-10T13:10:37.088Z,9.3
2016-12-10T13:11:43.159Z,9.3
2016-12-10T13:12:49.113Z,9.3
2016-12-10T13:13:55.167Z,9.4
2016-12-10T13:15:01.121Z,9.4
2016-12-10T13:16:07.170Z,9.4
2016-12-10T13:17:13.149Z,9.4
2016-12-10T13:18:19.194Z,9.4
2016-12-10T13:19:25.159Z,9.4
2016-12-10T13:20:31.187Z,9.4
2016-12-10T13:21:37.164Z,9.4
2016-12-10T13:22:43.154Z,9.3
2016-12-10T13:23:49.153Z,9.3
2016-12-10T13:24:55.151Z,9.3
2016-12-10T13:26:01.343Z,9.3
2016-12-10T13:27:07.335Z,9.3
2016-12-10T13:28:13.345Z,9.3
2016-12-10T13:29:19.341Z,9.3
2016-12-10T13:30:25.372Z,9.3
2016-12-10T13:31:31.343Z,9.3
2016-12-10T13:32:37.344Z,9.4
2016-12-10T13:33:43.355Z,9.3
2016-12-10T13:34:49.356Z,9.4
2016-12-10T13:35:55.356Z,9.4
2016-12-10T13:37:01.343Z,9.4
2016-12-10T13:38:07.348Z,9.4
2016-12-10T13:39:13.352Z,9.4
2016-12-10T13:40:19.353Z,9.4
2016-12-10T13:41:25.355Z,9.3
2016-12-10T13:42:31.355Z,9.4
2016-12-10T13:43:37.354Z,9.4
2016-12-10T13:44:43.350Z,9.4
2016-12-10T13:45:49.358Z,9.3
2016-12-10T13:46:55.351Z,9.3
2016-12-10T13:48:01.348Z,9.3
2016-12-10T13:49:07.348Z,9.3
2016-12-10T13:50:12.610Z,9.4
2016-12-10T13:51:18.602Z,9.3
2016-12-10T13:52:24.607Z,9.3
2016-12-10T13:53:30.609Z,9.3
2016-12-10T13:54:36.617Z,9.3
2016-12-10T13:55:42.610Z,9.3
2016-12-10T13:56:48.611Z,9.4
2016-12-10T13:57:54.609Z,9.4
2016-12-10T13:59:00.615Z,9.4
2016-12-10T14:00:06.607Z,9.4
2016-12-10T14:01:12.604Z,9.4
2016-12-10T14:02:18.601Z,9.4
2016-12-10T14:03:24.600Z,9.4
2016-12-10T14:04:30.600Z,9.5
2016-12-10T14:05:36.601Z,9.5
2016-12-10T14:06:42.599Z,9.5
2016-12-10T14:07:48.598Z,9.5
2016-12-10T14:08:54.693Z,9.4
2016-12-10T14:10:00.696Z,9.4
2016-12-10T14:11:06.701Z,9.4
2016-12-10T14:12:12.715Z,9.4
2016-12-10T14:13:17.954Z,9.4
2016-12-10T14:14:23.956Z,9.5
2016-12-10T14:15:29.958Z,9.4
2016-12-10T14:16:35.952Z,9.5
2016-12-10T14:17:41.952Z,9.4
2016-12-10T14:18:47.954Z,9.4
2016-12-10T14:19:53.962Z,9.4
2016-12-10T14:20:59.962Z,9.3
2016-12-10T14:22:05.961Z,9.3
2016-12-10T14:23:11.963Z,9.4
2016-12-10T14:24:17.964Z,9.4
2016-12-10T14:25:23.963Z,9.4
2016-12-10T14:26:29.959Z,9.4
2016-12-10T14:27:35.957Z,9.4
2016-12-10T14:28:41.962Z,9.4
2016-12-10T14:29:47.960Z,9.5
2016-12-10T14:30:53.958Z,9.5
2016-12-10T14:31:59.957Z,9.5
2016-12-10T14:33:05.992Z,9.5
2016-12-10T14:34:11.988Z,9.4
2016-12-10T14:35:17.987Z,9.5
2016-12-10T14:36:23.988Z,9.5
2016-12-10T14:37:29.986Z,9.5
2016-12-10T14:38:35.986Z,9.4
2016-12-10T14:39:42.265Z,9.4
2016-12-10T14:40:48.197Z,9.5
2016-12-10T14:41:54.197Z,9.5
2016-12-10T14:43:00.195Z,9.4
2016-12-10T14:44:06.191Z,9.4
2016-12-10T14:45:12.202Z,9.4
2016-12-10T14:46:18.206Z,9.4
2016-12-10T14:47:24.203Z,9.4
2016-12-10T14:48:30.200Z,9.4
2016-12-10T14:49:36.204Z,9.5
2016-12-10T14:50:42.204Z,9.5
2016-12-10T14:51:48.201Z,9.5
2016-12-10T14:52:54.207Z,9.5
2016-12-10T14:54:00.214Z,9.5
2016-12-10T14:55:06.207Z,9.4
2016-12-10T14:56:12.209Z,9.5